Terminal Aerodrome Forecast
Issued by NWS Jackson, MS

Home | Current Version | Previous Version | Text Only | Print | Product List | Glossary On
Versions: 1 2 3 4 5 6 7 8 9 10 11 12 13
750
FTUS44 KJAN 271124
TAFJAN
TAF
KJAN 271124Z 2712/2812 19008KT P6SM BKN025
     FM271600 19010KT P6SM SCT025 SCT050
     FM280800 19008KT P6SM OVC015=

USA.gov is the U.S. government's official web portal to all federal, state and local government web resources and services.